KBOW/BOW METAR and TAF weather

Enter ICAO airport designator
Station Type Date Time Source
KBOW METAR 2020/04/06 09:15 UTC NOAA

KBOW 060915Z AUTO 05007KT 10SM OVC020 19/17 A3002 RMK AO2


Station Type Date Time Source
KBOW Decoded METAR 2020/04/06 09:15 UTC NOAA

Bartow Municipal, FL, United States (KBOW) 27-57N 081-47W
Apr 06, 2020 - 05:15 AM EDT / 2020.04.06 0915 UTC
Wind: from the NE (050 degrees) at 8 MPH (7 KT):0
Visibility: 10 mile(s):0
Sky conditions: overcast
Temperature: 66 F (19 C)
Dew Point: 62 F (17 C)
Relative Humidity: 88%
Pressure (altimeter): 30.02 in. Hg (1016 hPa)
ob: KBOW 060915Z AUTO 05007KT 10SM OVC020 19/17 A3002 RMK AO2
cycle: 9

Station Type Date Time Source
KBOW TAF UTC NOAA

Error!

Example: see airport list